sensor_id;sensor_type;location;lat;lon;timestamp;P1;durP1;ratioP1;P2;durP2;ratioP2
13797;SDS011;6970;51.340;3.240;2023-09-12T00:01:25;27.20;;;20.83;;
13797;SDS011;6970;51.340;3.240;2023-09-12T00:03:52;24.47;;;18.77;;
13797;SDS011;6970;51.340;3.240;2023-09-12T00:06:20;21.00;;;18.90;;
13797;SDS011;6970;51.340;3.240;2023-09-12T00:08:47;28.23;;;20.70;;
13797;SDS011;6970;51.340;3.240;2023-09-12T00:11:14;28.33;;;21.97;;
13797;SDS011;6970;51.340;3.240;2023-09-12T00:13:41;27.70;;;19.20;;
13797;SDS011;6970;51.340;3.240;2023-09-12T00:16:08;26.37;;;20.43;;
13797;SDS011;6970;51.340;3.240;2023-09-12T00:18:38;26.60;;;20.73;;
13797;SDS011;6970;51.340;3.240;2023-09-12T00:23:39;20.87;;;17.23;;
13797;SDS011;6970;51.340;3.240;2023-09-12T00:26:07;23.20;;;18.53;;
13797;SDS011;6970;51.340;3.240;2023-09-12T00:28:35;24.47;;;19.60;;
13797;SDS011;6970;51.340;3.240;2023-09-12T00:31:04;27.53;;;21.47;;
13797;SDS011;6970;51.340;3.240;2023-09-12T00:33:31;21.27;;;19.03;;
13797;SDS011;6970;51.340;3.240;2023-09-12T00:40:59;22.97;;;19.43;;
13797;SDS011;6970;51.340;3.240;2023-09-12T00:43:26;22.27;;;18.87;;
13797;SDS011;6970;51.340;3.240;2023-09-12T00:45:53;23.87;;;19.00;;
13797;SDS011;6970;51.340;3.240;2023-09-12T00:48:20;23.87;;;19.67;;
13797;SDS011;6970;51.340;3.240;2023-09-12T00:50:48;24.33;;;21.27;;
13797;SDS011;6970;51.340;3.240;2023-09-12T00:53:17;22.40;;;19.90;;
13797;SDS011;6970;51.340;3.240;2023-09-12T00:55:48;24.70;;;18.83;;
13797;SDS011;6970;51.340;3.240;2023-09-12T00:58:20;28.67;;;21.47;;
13797;SDS011;6970;51.340;3.240;2023-09-12T01:00:47;20.83;;;18.37;;
13797;SDS011;6970;51.340;3.240;2023-09-12T01:03:14;25.80;;;20.63;;
13797;SDS011;6970;51.340;3.240;2023-09-12T01:05:43;26.30;;;21.50;;
13797;SDS011;6970;51.340;3.240;2023-09-12T01:08:11;24.80;;;21.53;;
13797;SDS011;6970;51.340;3.240;2023-09-12T01:10:38;28.07;;;21.53;;
13797;SDS011;6970;51.340;3.240;2023-09-12T01:13:06;24.47;;;21.27;;
13797;SDS011;6970;51.340;3.240;2023-09-12T01:15:34;29.50;;;22.97;;
13797;SDS011;6970;51.340;3.240;2023-09-12T01:18:04;27.60;;;22.53;;
13797;SDS011;6970;51.340;3.240;2023-09-12T01:20:32;29.43;;;23.03;;
13797;SDS011;6970;51.340;3.240;2023-09-12T01:23:12;32.50;;;23.90;;
13797;SDS011;6970;51.340;3.240;2023-09-12T01:28:46;35.17;;;24.40;;
13797;SDS011;6970;51.340;3.240;2023-09-12T01:31:15;29.97;;;23.37;;
13797;SDS011;6970;51.340;3.240;2023-09-12T01:33:44;31.70;;;24.70;;
13797;SDS011;6970;51.340;3.240;2023-09-12T01:36:12;28.13;;;22.50;;
13797;SDS011;6970;51.340;3.240;2023-09-12T01:38:41;32.17;;;23.53;;
13797;SDS011;6970;51.340;3.240;2023-09-12T01:41:08;35.63;;;23.37;;
13797;SDS011;6970;51.340;3.240;2023-09-12T01:43:38;30.60;;;22.90;;
13797;SDS011;6970;51.340;3.240;2023-09-12T01:46:08;31.03;;;22.87;;
13797;SDS011;6970;51.340;3.240;2023-09-12T01:48:36;43.97;;;24.97;;
13797;SDS011;6970;51.340;3.240;2023-09-12T01:51:05;40.80;;;26.20;;
13797;SDS011;6970;51.340;3.240;2023-09-12T01:53:34;40.20;;;24.47;;
13797;SDS011;6970;51.340;3.240;2023-09-12T01:56:04;45.73;;;26.90;;
13797;SDS011;6970;51.340;3.240;2023-09-12T01:58:32;51.50;;;26.23;;
13797;SDS011;6970;51.340;3.240;2023-09-12T02:00:59;49.10;;;26.93;;
13797;SDS011;6970;51.340;3.240;2023-09-12T02:03:27;60.27;;;30.33;;
13797;SDS011;6970;51.340;3.240;2023-09-12T02:05:54;60.20;;;30.77;;
13797;SDS011;6970;51.340;3.240;2023-09-12T02:08:21;58.43;;;30.70;;
13797;SDS011;6970;51.340;3.240;2023-09-12T02:10:48;58.17;;;27.47;;
13797;SDS011;6970;51.340;3.240;2023-09-12T02:13:15;61.47;;;29.00;;
13797;SDS011;6970;51.340;3.240;2023-09-12T02:15:42;62.93;;;29.90;;
13797;SDS011;6970;51.340;3.240;2023-09-12T02:18:10;68.13;;;32.10;;
13797;SDS011;6970;51.340;3.240;2023-09-12T02:20:41;71.57;;;33.33;;
13797;SDS011;6970;51.340;3.240;2023-09-12T02:23:12;63.67;;;31.57;;
13797;SDS011;6970;51.340;3.240;2023-09-12T02:25:39;62.47;;;30.73;;
13797;SDS011;6970;51.340;3.240;2023-09-12T02:28:06;62.93;;;30.07;;
13797;SDS011;6970;51.340;3.240;2023-09-12T02:30:33;79.77;;;32.93;;
13797;SDS011;6970;51.340;3.240;2023-09-12T02:33:00;60.67;;;30.37;;
13797;SDS011;6970;51.340;3.240;2023-09-12T02:35:28;75.47;;;31.23;;
13797;SDS011;6970;51.340;3.240;2023-09-12T02:37:56;64.77;;;30.87;;
13797;SDS011;6970;51.340;3.240;2023-09-12T02:40:24;61.13;;;28.53;;
13797;SDS011;6970;51.340;3.240;2023-09-12T02:42:53;59.40;;;28.40;;
13797;SDS011;6970;51.340;3.240;2023-09-12T02:45:21;58.73;;;29.47;;
13797;SDS011;6970;51.340;3.240;2023-09-12T02:47:51;97.40;;;30.20;;
13797;SDS011;6970;51.340;3.240;2023-09-12T02:50:20;68.80;;;28.87;;
13797;SDS011;6970;51.340;3.240;2023-09-12T02:52:50;129.00;;;32.33;;
13797;SDS011;6970;51.340;3.240;2023-09-12T02:55:17;68.13;;;30.53;;
13797;SDS011;6970;51.340;3.240;2023-09-12T02:57:44;59.63;;;29.57;;
13797;SDS011;6970;51.340;3.240;2023-09-12T03:00:11;72.33;;;28.70;;
13797;SDS011;6970;51.340;3.240;2023-09-12T03:02:42;52.20;;;28.00;;
13797;SDS011;6970;51.340;3.240;2023-09-12T03:07:39;60.50;;;28.33;;
13797;SDS011;6970;51.340;3.240;2023-09-12T03:10:12;70.57;;;29.57;;
13797;SDS011;6970;51.340;3.240;2023-09-12T03:12:40;63.23;;;30.77;;
13797;SDS011;6970;51.340;3.240;2023-09-12T03:15:08;81.67;;;29.87;;
13797;SDS011;6970;51.340;3.240;2023-09-12T03:17:38;65.67;;;29.73;;
13797;SDS011;6970;51.340;3.240;2023-09-12T03:20:05;62.67;;;30.27;;
13797;SDS011;6970;51.340;3.240;2023-09-12T03:22:38;78.87;;;30.57;;
13797;SDS011;6970;51.340;3.240;2023-09-12T03:25:06;67.17;;;31.20;;
13797;SDS011;6970;51.340;3.240;2023-09-12T03:27:35;98.00;;;32.70;;
13797;SDS011;6970;51.340;3.240;2023-09-12T03:30:02;94.27;;;31.60;;
13797;SDS011;6970;51.340;3.240;2023-09-12T03:32:31;60.37;;;30.03;;
13797;SDS011;6970;51.340;3.240;2023-09-12T03:34:58;63.83;;;32.50;;
13797;SDS011;6970;51.340;3.240;2023-09-12T03:37:26;69.70;;;31.80;;
13797;SDS011;6970;51.340;3.240;2023-09-12T03:39:54;63.13;;;29.90;;
13797;SDS011;6970;51.340;3.240;2023-09-12T03:42:25;60.03;;;30.30;;
13797;SDS011;6970;51.340;3.240;2023-09-12T03:45:06;65.17;;;32.07;;
13797;SDS011;6970;51.340;3.240;2023-09-12T03:47:35;64.23;;;32.37;;
13797;SDS011;6970;51.340;3.240;2023-09-12T03:50:03;63.87;;;31.43;;
13797;SDS011;6970;51.340;3.240;2023-09-12T03:52:33;58.83;;;29.70;;
13797;SDS011;6970;51.340;3.240;2023-09-12T03:55:03;75.13;;;32.93;;
13797;SDS011;6970;51.340;3.240;2023-09-12T03:57:32;66.17;;;31.83;;
13797;SDS011;6970;51.340;3.240;2023-09-12T04:00:00;69.20;;;31.57;;
13797;SDS011;6970;51.340;3.240;2023-09-12T04:05:06;80.23;;;36.40;;
13797;SDS011;6970;51.340;3.240;2023-09-12T04:07:35;68.47;;;32.70;;
13797;SDS011;6970;51.340;3.240;2023-09-12T04:10:03;79.13;;;33.57;;
13797;SDS011;6970;51.340;3.240;2023-09-12T04:12:30;80.03;;;35.10;;
13797;SDS011;6970;51.340;3.240;2023-09-12T04:14:59;68.40;;;32.90;;
13797;SDS011;6970;51.340;3.240;2023-09-12T04:17:26;79.17;;;34.50;;
13797;SDS011;6970;51.340;3.240;2023-09-12T04:19:55;87.73;;;36.47;;
13797;SDS011;6970;51.340;3.240;2023-09-12T04:22:25;74.77;;;34.33;;
13797;SDS011;6970;51.340;3.240;2023-09-12T04:24:52;71.67;;;33.77;;
13797;SDS011;6970;51.340;3.240;2023-09-12T04:27:22;102.93;;;36.27;;
13797;SDS011;6970;51.340;3.240;2023-09-12T04:32:20;73.73;;;35.97;;
13797;SDS011;6970;51.340;3.240;2023-09-12T04:39:50;80.87;;;37.33;;
13797;SDS011;6970;51.340;3.240;2023-09-12T04:42:20;95.17;;;39.37;;
13797;SDS011;6970;51.340;3.240;2023-09-12T04:44:51;73.73;;;36.63;;
13797;SDS011;6970;51.340;3.240;2023-09-12T04:49:50;69.13;;;35.37;;
13797;SDS011;6970;51.340;3.240;2023-09-12T04:52:21;85.40;;;37.47;;
13797;SDS011;6970;51.340;3.240;2023-09-12T04:54:49;95.57;;;36.33;;
13797;SDS011;6970;51.340;3.240;2023-09-12T04:57:17;71.07;;;34.37;;
13797;SDS011;6970;51.340;3.240;2023-09-12T04:59:46;99.30;;;36.77;;
13797;SDS011;6970;51.340;3.240;2023-09-12T05:02:13;114.53;;;36.00;;
13797;SDS011;6970;51.340;3.240;2023-09-12T05:07:12;78.00;;;37.60;;
13797;SDS011;6970;51.340;3.240;2023-09-12T05:09:41;80.03;;;36.27;;
13797;SDS011;6970;51.340;3.240;2023-09-12T05:12:09;113.37;;;36.50;;
13797;SDS011;6970;51.340;3.240;2023-09-12T05:14:38;152.90;;;36.93;;
13797;SDS011;6970;51.340;3.240;2023-09-12T05:19:35;73.40;;;34.87;;
13797;SDS011;6970;51.340;3.240;2023-09-12T05:27:03;75.03;;;36.00;;
13797;SDS011;6970;51.340;3.240;2023-09-12T05:29:35;57.30;;;31.90;;
13797;SDS011;6970;51.340;3.240;2023-09-12T05:32:03;106.63;;;32.87;;
13797;SDS011;6970;51.340;3.240;2023-09-12T05:34:34;72.40;;;33.13;;
13797;SDS011;6970;51.340;3.240;2023-09-12T05:39:32;124.90;;;32.00;;
13797;SDS011;6970;51.340;3.240;2023-09-12T05:41:59;150.93;;;34.27;;
13797;SDS011;6970;51.340;3.240;2023-09-12T05:44:26;75.37;;;33.67;;
13797;SDS011;6970;51.340;3.240;2023-09-12T05:52:00;51.13;;;30.00;;
13797;SDS011;6970;51.340;3.240;2023-09-12T05:54:28;53.57;;;30.63;;
13797;SDS011;6970;51.340;3.240;2023-09-12T05:56:56;66.57;;;31.63;;
13797;SDS011;6970;51.340;3.240;2023-09-12T05:59:24;55.97;;;30.73;;
13797;SDS011;6970;51.340;3.240;2023-09-12T06:01:52;92.50;;;32.57;;
13797;SDS011;6970;51.340;3.240;2023-09-12T06:04:19;60.17;;;32.73;;
13797;SDS011;6970;51.340;3.240;2023-09-12T06:06:49;64.10;;;31.40;;
13797;SDS011;6970;51.340;3.240;2023-09-12T06:09:19;58.63;;;29.03;;
13797;SDS011;6970;51.340;3.240;2023-09-12T06:11:48;48.00;;;28.63;;
13797;SDS011;6970;51.340;3.240;2023-09-12T06:14:21;51.27;;;28.87;;
13797;SDS011;6970;51.340;3.240;2023-09-12T06:16:48;80.43;;;29.57;;
13797;SDS011;6970;51.340;3.240;2023-09-12T06:19:18;57.23;;;29.17;;
13797;SDS011;6970;51.340;3.240;2023-09-12T06:24:20;55.03;;;27.40;;
13797;SDS011;6970;51.340;3.240;2023-09-12T06:26:55;59.33;;;28.70;;
13797;SDS011;6970;51.340;3.240;2023-09-12T06:29:24;66.77;;;29.93;;
13797;SDS011;6970;51.340;3.240;2023-09-12T06:34:23;59.83;;;27.07;;
13797;SDS011;6970;51.340;3.240;2023-09-12T06:36:50;51.40;;;26.80;;
13797;SDS011;6970;51.340;3.240;2023-09-12T06:39:17;49.77;;;28.07;;
13797;SDS011;6970;51.340;3.240;2023-09-12T06:41:44;43.57;;;27.30;;
13797;SDS011;6970;51.340;3.240;2023-09-12T06:44:12;43.67;;;26.50;;
13797;SDS011;6970;51.340;3.240;2023-09-12T06:46:39;58.67;;;27.37;;
13797;SDS011;6970;51.340;3.240;2023-09-12T06:51:36;50.13;;;27.47;;
13797;SDS011;6970;51.340;3.240;2023-09-12T06:54:06;46.97;;;27.63;;
13797;SDS011;6970;51.340;3.240;2023-09-12T06:56:35;47.33;;;27.27;;
13797;SDS011;6970;51.340;3.240;2023-09-12T06:59:10;36.43;;;24.73;;
13797;SDS011;6970;51.340;3.240;2023-09-12T07:01:37;49.40;;;26.60;;
13797;SDS011;6970;51.340;3.240;2023-09-12T07:04:08;34.30;;;25.00;;
13797;SDS011;6970;51.340;3.240;2023-09-12T07:06:35;50.83;;;26.77;;
13797;SDS011;6970;51.340;3.240;2023-09-12T07:09:05;38.97;;;24.13;;
13797;SDS011;6970;51.340;3.240;2023-09-12T07:11:34;36.83;;;24.70;;
13797;SDS011;6970;51.340;3.240;2023-09-12T07:14:02;35.13;;;23.40;;
13797;SDS011;6970;51.340;3.240;2023-09-12T07:19:03;40.33;;;25.43;;
13797;SDS011;6970;51.340;3.240;2023-09-12T07:21:32;54.17;;;26.63;;
13797;SDS011;6970;51.340;3.240;2023-09-12T07:23:59;36.37;;;25.10;;
13797;SDS011;6970;51.340;3.240;2023-09-12T07:28:58;54.73;;;28.60;;
13797;SDS011;6970;51.340;3.240;2023-09-12T07:31:29;74.10;;;26.37;;
13797;SDS011;6970;51.340;3.240;2023-09-12T07:33:58;36.43;;;23.23;;
13797;SDS011;6970;51.340;3.240;2023-09-12T07:36:28;37.60;;;24.80;;
13797;SDS011;6970;51.340;3.240;2023-09-12T07:38:56;36.67;;;23.97;;
13797;SDS011;6970;51.340;3.240;2023-09-12T07:41:26;36.27;;;23.87;;
13797;SDS011;6970;51.340;3.240;2023-09-12T07:43:56;39.40;;;25.93;;
13797;SDS011;6970;51.340;3.240;2023-09-12T07:48:57;29.73;;;22.07;;
13797;SDS011;6970;51.340;3.240;2023-09-12T07:51:25;52.97;;;24.60;;
13797;SDS011;6970;51.340;3.240;2023-09-12T07:53:53;32.90;;;22.40;;
13797;SDS011;6970;51.340;3.240;2023-09-12T07:58:53;36.53;;;24.63;;
13797;SDS011;6970;51.340;3.240;2023-09-12T08:01:22;33.73;;;24.17;;
13797;SDS011;6970;51.340;3.240;2023-09-12T08:03:51;33.23;;;23.53;;
13797;SDS011;6970;51.340;3.240;2023-09-12T08:06:19;35.97;;;24.10;;
13797;SDS011;6970;51.340;3.240;2023-09-12T08:08:50;32.63;;;22.90;;
13797;SDS011;6970;51.340;3.240;2023-09-12T08:11:19;33.87;;;23.33;;
13797;SDS011;6970;51.340;3.240;2023-09-12T08:13:48;34.13;;;24.30;;
13797;SDS011;6970;51.340;3.240;2023-09-12T08:16:19;31.93;;;24.47;;
13797;SDS011;6970;51.340;3.240;2023-09-12T08:18:48;38.17;;;25.53;;
13797;SDS011;6970;51.340;3.240;2023-09-12T08:21:16;34.40;;;25.27;;
13797;SDS011;6970;51.340;3.240;2023-09-12T08:28:44;38.53;;;25.77;;
13797;SDS011;6970;51.340;3.240;2023-09-12T08:31:12;34.47;;;23.90;;
13797;SDS011;6970;51.340;3.240;2023-09-12T08:36:10;34.20;;;24.67;;
13797;SDS011;6970;51.340;3.240;2023-09-12T08:38:41;45.73;;;28.07;;
13797;SDS011;6970;51.340;3.240;2023-09-12T08:43:41;36.27;;;26.17;;
13797;SDS011;6970;51.340;3.240;2023-09-12T08:46:12;36.20;;;26.30;;
13797;SDS011;6970;51.340;3.240;2023-09-12T08:53:42;34.87;;;24.50;;
13797;SDS011;6970;51.340;3.240;2023-09-12T08:56:13;35.30;;;25.13;;
13797;SDS011;6970;51.340;3.240;2023-09-12T08:58:45;34.77;;;24.97;;
13797;SDS011;6970;51.340;3.240;2023-09-12T09:03:45;39.60;;;26.43;;
13797;SDS011;6970;51.340;3.240;2023-09-12T09:06:17;35.77;;;26.43;;
13797;SDS011;6970;51.340;3.240;2023-09-12T09:08:51;35.40;;;25.17;;
13797;SDS011;6970;51.340;3.240;2023-09-12T09:13:55;41.63;;;27.17;;
13797;SDS011;6970;51.340;3.240;2023-09-12T09:16:25;36.10;;;25.47;;
13797;SDS011;6970;51.340;3.240;2023-09-12T09:19:02;36.10;;;23.60;;
13797;SDS011;6970;51.340;3.240;2023-09-12T09:21:32;32.50;;;25.43;;
13797;SDS011;6970;51.340;3.240;2023-09-12T09:24:00;39.03;;;25.67;;
13797;SDS011;6970;51.340;3.240;2023-09-12T09:31:50;30.80;;;24.37;;
13797;SDS011;6970;51.340;3.240;2023-09-12T09:34:20;32.97;;;25.27;;
13797;SDS011;6970;51.340;3.240;2023-09-12T09:36:51;28.20;;;23.33;;
13797;SDS011;6970;51.340;3.240;2023-09-12T09:39:23;26.13;;;22.15;;
13797;SDS011;6970;51.340;3.240;2023-09-12T09:41:55;27.42;;;22.05;;
13797;SDS011;6970;51.340;3.240;2023-09-12T09:44:25;26.23;;;21.42;;
13797;SDS011;6970;51.340;3.240;2023-09-12T09:49:33;20.73;;;18.60;;
13797;SDS011;6970;51.340;3.240;2023-09-12T09:52:07;20.92;;;17.77;;
13797;SDS011;6970;51.340;3.240;2023-09-12T09:54:34;23.08;;;19.00;;
13797;SDS011;6970;51.340;3.240;2023-09-12T09:57:05;20.90;;;18.60;;
13797;SDS011;6970;51.340;3.240;2023-09-12T09:59:38;21.35;;;16.88;;
13797;SDS011;6970;51.340;3.240;2023-09-12T10:02:06;17.83;;;15.98;;
13797;SDS011;6970;51.340;3.240;2023-09-12T10:04:41;21.77;;;17.50;;
13797;SDS011;6970;51.340;3.240;2023-09-12T10:07:12;18.92;;;16.77;;
13797;SDS011;6970;51.340;3.240;2023-09-12T10:09:44;18.00;;;15.65;;
13797;SDS011;6970;51.340;3.240;2023-09-12T10:12:12;19.60;;;16.50;;
13797;SDS011;6970;51.340;3.240;2023-09-12T10:14:41;19.25;;;15.57;;
13797;SDS011;6970;51.340;3.240;2023-09-12T10:17:10;16.33;;;14.77;;
13797;SDS011;6970;51.340;3.240;2023-09-12T10:19:55;16.10;;;14.52;;
13797;SDS011;6970;51.340;3.240;2023-09-12T10:22:38;17.90;;;16.05;;
13797;SDS011;6970;51.340;3.240;2023-09-12T10:25:12;19.75;;;17.67;;
13797;SDS011;6970;51.340;3.240;2023-09-12T10:27:39;16.25;;;14.55;;
13797;SDS011;6970;51.340;3.240;2023-09-12T10:30:07;17.90;;;15.38;;
13797;SDS011;6970;51.340;3.240;2023-09-12T10:32:35;18.27;;;16.17;;
13797;SDS011;6970;51.340;3.240;2023-09-12T10:35:03;15.40;;;13.85;;
13797;SDS011;6970;51.340;3.240;2023-09-12T10:40:05;13.93;;;12.57;;
13797;SDS011;6970;51.340;3.240;2023-09-12T10:42:39;11.68;;;10.32;;
13797;SDS011;6970;51.340;3.240;2023-09-12T10:45:06;10.07;;;9.10;;
13797;SDS011;6970;51.340;3.240;2023-09-12T10:47:37;11.63;;;10.50;;
13797;SDS011;6970;51.340;3.240;2023-09-12T10:52:35;10.52;;;9.40;;
13797;SDS011;6970;51.340;3.240;2023-09-12T10:55:07;13.75;;;12.32;;
13797;SDS011;6970;51.340;3.240;2023-09-12T11:00:25;12.18;;;10.93;;
13797;SDS011;6970;51.340;3.240;2023-09-12T11:02:55;12.88;;;10.32;;
13797;SDS011;6970;51.340;3.240;2023-09-12T11:08:00;14.00;;;12.13;;
13797;SDS011;6970;51.340;3.240;2023-09-12T11:10:31;14.30;;;11.57;;
13797;SDS011;6970;51.340;3.240;2023-09-12T11:15:33;14.13;;;9.82;;
13797;SDS011;6970;51.340;3.240;2023-09-12T11:18:02;12.45;;;11.38;;
13797;SDS011;6970;51.340;3.240;2023-09-12T11:20:49;11.13;;;10.02;;
13797;SDS011;6970;51.340;3.240;2023-09-12T11:23:27;11.60;;;10.40;;
13797;SDS011;6970;51.340;3.240;2023-09-12T11:26:06;11.30;;;9.53;;
13797;SDS011;6970;51.340;3.240;2023-09-12T11:33:50;11.07;;;10.07;;
13797;SDS011;6970;51.340;3.240;2023-09-12T11:36:19;13.00;;;11.40;;
13797;SDS011;6970;51.340;3.240;2023-09-12T11:38:51;11.20;;;8.95;;
13797;SDS011;6970;51.340;3.240;2023-09-12T11:44:09;15.02;;;10.65;;
13797;SDS011;6970;51.340;3.240;2023-09-12T11:46:41;10.57;;;9.57;;
13797;SDS011;6970;51.340;3.240;2023-09-12T11:49:09;10.70;;;9.13;;
13797;SDS011;6970;51.340;3.240;2023-09-12T11:51:40;9.43;;;8.63;;
13797;SDS011;6970;51.340;3.240;2023-09-12T11:54:19;9.00;;;8.20;;
13797;SDS011;6970;51.340;3.240;2023-09-12T11:56:55;9.83;;;7.30;;
13797;SDS011;6970;51.340;3.240;2023-09-12T11:59:26;9.87;;;9.07;;
13797;SDS011;6970;51.340;3.240;2023-09-12T12:01:53;9.40;;;8.60;;
13797;SDS011;6970;51.340;3.240;2023-09-12T12:04:24;9.63;;;8.73;;
13797;SDS011;6970;51.340;3.240;2023-09-12T12:06:52;10.60;;;8.93;;
13797;SDS011;6970;51.340;3.240;2023-09-12T12:09:22;13.20;;;8.00;;
13797;SDS011;6970;51.340;3.240;2023-09-12T12:14:23;8.53;;;7.73;;
13797;SDS011;6970;51.340;3.240;2023-09-12T12:16:53;13.60;;;8.75;;
13797;SDS011;6970;51.340;3.240;2023-09-12T12:21:53;8.93;;;8.07;;
13797;SDS011;6970;51.340;3.240;2023-09-12T12:24:21;9.73;;;8.73;;
13797;SDS011;6970;51.340;3.240;2023-09-12T12:26:48;14.50;;;10.07;;
13797;SDS011;6970;51.340;3.240;2023-09-12T12:31:48;10.00;;;9.15;;
13797;SDS011;6970;51.340;3.240;2023-09-12T12:34:21;10.10;;;9.10;;
13797;SDS011;6970;51.340;3.240;2023-09-12T12:37:11;9.90;;;8.88;;
13797;SDS011;6970;51.340;3.240;2023-09-12T12:39:42;10.05;;;9.10;;
13797;SDS011;6970;51.340;3.240;2023-09-12T12:42:12;11.05;;;9.80;;
13797;SDS011;6970;51.340;3.240;2023-09-12T12:44:39;19.48;;;11.63;;
13797;SDS011;6970;51.340;3.240;2023-09-12T12:47:08;9.27;;;8.38;;
13797;SDS011;6970;51.340;3.240;2023-09-12T12:49:42;10.50;;;9.15;;
13797;SDS011;6970;51.340;3.240;2023-09-12T12:52:16;14.07;;;10.30;;
13797;SDS011;6970;51.340;3.240;2023-09-12T12:57:18;11.13;;;9.88;;
13797;SDS011;6970;51.340;3.240;2023-09-12T12:59:46;11.85;;;9.43;;
13797;SDS011;6970;51.340;3.240;2023-09-12T13:02:17;8.60;;;7.88;;
13797;SDS011;6970;51.340;3.240;2023-09-12T13:07:16;11.68;;;10.25;;
13797;SDS011;6970;51.340;3.240;2023-09-12T13:09:46;12.10;;;9.73;;
13797;SDS011;6970;51.340;3.240;2023-09-12T13:12:14;9.30;;;8.50;;
13797;SDS011;6970;51.340;3.240;2023-09-12T13:14:44;8.60;;;7.82;;
13797;SDS011;6970;51.340;3.240;2023-09-12T13:17:11;10.27;;;9.30;;
13797;SDS011;6970;51.340;3.240;2023-09-12T13:19:38;10.13;;;9.15;;
13797;SDS011;6970;51.340;3.240;2023-09-12T13:27:06;12.18;;;11.07;;
13797;SDS011;6970;51.340;3.240;2023-09-12T13:29:35;11.60;;;10.45;;
13797;SDS011;6970;51.340;3.240;2023-09-12T13:32:02;9.40;;;8.55;;
13797;SDS011;6970;51.340;3.240;2023-09-12T13:34:32;14.00;;;9.90;;
13797;SDS011;6970;51.340;3.240;2023-09-12T13:39:38;9.82;;;8.93;;
13797;SDS011;6970;51.340;3.240;2023-09-12T13:42:06;12.95;;;9.38;;
13797;SDS011;6970;51.340;3.240;2023-09-12T13:47:11;9.32;;;8.43;;
13797;SDS011;6970;51.340;3.240;2023-09-12T13:49:41;9.38;;;8.52;;
13797;SDS011;6970;51.340;3.240;2023-09-12T13:52:11;8.88;;;8.02;;
13797;SDS011;6970;51.340;3.240;2023-09-12T13:57:11;9.77;;;8.88;;
13797;SDS011;6970;51.340;3.240;2023-09-12T13:59:38;10.02;;;9.13;;
13797;SDS011;6970;51.340;3.240;2023-09-12T14:02:11;10.40;;;8.70;;
13797;SDS011;6970;51.340;3.240;2023-09-12T14:04:40;12.38;;;10.35;;
13797;SDS011;6970;51.340;3.240;2023-09-12T14:07:08;11.82;;;9.63;;
13797;SDS011;6970;51.340;3.240;2023-09-12T14:09:36;15.13;;;13.80;;
13797;SDS011;6970;51.340;3.240;2023-09-12T14:12:11;12.77;;;11.45;;
13797;SDS011;6970;51.340;3.240;2023-09-12T14:14:53;14.65;;;13.27;;
13797;SDS011;6970;51.340;3.240;2023-09-12T14:17:34;14.80;;;13.43;;
13797;SDS011;6970;51.340;3.240;2023-09-12T14:20:03;12.82;;;11.57;;
13797;SDS011;6970;51.340;3.240;2023-09-12T14:22:33;12.98;;;11.77;;
13797;SDS011;6970;51.340;3.240;2023-09-12T14:25:04;12.15;;;10.60;;
13797;SDS011;6970;51.340;3.240;2023-09-12T14:32:36;14.10;;;12.85;;
13797;SDS011;6970;51.340;3.240;2023-09-12T14:35:04;12.88;;;11.88;;
13797;SDS011;6970;51.340;3.240;2023-09-12T14:37:31;13.10;;;11.93;;
13797;SDS011;6970;51.340;3.240;2023-09-12T14:40:00;13.75;;;12.48;;
13797;SDS011;6970;51.340;3.240;2023-09-12T14:42:32;12.00;;;10.98;;
13797;SDS011;6970;51.340;3.240;2023-09-12T14:45:00;14.55;;;13.15;;
13797;SDS011;6970;51.340;3.240;2023-09-12T14:47:29;11.98;;;10.60;;
13797;SDS011;6970;51.340;3.240;2023-09-12T14:50:01;11.57;;;10.52;;
13797;SDS011;6970;51.340;3.240;2023-09-12T14:52:30;10.88;;;9.98;;
13797;SDS011;6970;51.340;3.240;2023-09-12T14:55:01;11.23;;;10.15;;
13797;SDS011;6970;51.340;3.240;2023-09-12T15:00:00;10.35;;;9.45;;
13797;SDS011;6970;51.340;3.240;2023-09-12T15:02:31;12.43;;;11.32;;
13797;SDS011;6970;51.340;3.240;2023-09-12T15:07:33;11.18;;;10.25;;
13797;SDS011;6970;51.340;3.240;2023-09-12T15:10:05;12.35;;;11.15;;
13797;SDS011;6970;51.340;3.240;2023-09-12T15:12:38;12.63;;;11.50;;
13797;SDS011;6970;51.340;3.240;2023-09-12T15:15:05;11.07;;;10.00;;
13797;SDS011;6970;51.340;3.240;2023-09-12T15:17:36;10.15;;;9.27;;
13797;SDS011;6970;51.340;3.240;2023-09-12T15:20:04;15.00;;;12.63;;
13797;SDS011;6970;51.340;3.240;2023-09-12T15:22:33;12.07;;;11.10;;
13797;SDS011;6970;51.340;3.240;2023-09-12T15:27:37;12.30;;;11.20;;
13797;SDS011;6970;51.340;3.240;2023-09-12T15:30:04;11.55;;;10.23;;
13797;SDS011;6970;51.340;3.240;2023-09-12T15:32:35;11.82;;;10.75;;
13797;SDS011;6970;51.340;3.240;2023-09-12T15:35:04;11.27;;;10.10;;
13797;SDS011;6970;51.340;3.240;2023-09-12T15:37:34;14.27;;;12.82;;
13797;SDS011;6970;51.340;3.240;2023-09-12T15:40:04;14.52;;;13.20;;
13797;SDS011;6970;51.340;3.240;2023-09-12T15:42:32;11.57;;;10.27;;
13797;SDS011;6970;51.340;3.240;2023-09-12T15:47:37;10.50;;;9.40;;
13797;SDS011;6970;51.340;3.240;2023-09-12T15:52:42;10.88;;;10.02;;
13797;SDS011;6970;51.340;3.240;2023-09-12T15:55:12;10.30;;;9.35;;
13797;SDS011;6970;51.340;3.240;2023-09-12T15:57:42;11.37;;;10.37;;
13797;SDS011;6970;51.340;3.240;2023-09-12T16:00:11;11.15;;;10.02;;
13797;SDS011;6970;51.340;3.240;2023-09-12T16:02:40;9.93;;;8.93;;
13797;SDS011;6970;51.340;3.240;2023-09-12T16:05:14;10.48;;;9.45;;
13797;SDS011;6970;51.340;3.240;2023-09-12T16:07:44;12.82;;;11.70;;
13797;SDS011;6970;51.340;3.240;2023-09-12T16:10:12;11.77;;;10.67;;
13797;SDS011;6970;51.340;3.240;2023-09-12T16:15:14;11.77;;;10.65;;
13797;SDS011;6970;51.340;3.240;2023-09-12T16:20:15;11.23;;;10.37;;
13797;SDS011;6970;51.340;3.240;2023-09-12T16:27:42;11.00;;;10.00;;
13797;SDS011;6970;51.340;3.240;2023-09-12T16:30:09;10.13;;;9.13;;
13797;SDS011;6970;51.340;3.240;2023-09-12T16:32:37;13.53;;;12.00;;
13797;SDS011;6970;51.340;3.240;2023-09-12T16:35:06;9.93;;;9.13;;
13797;SDS011;6970;51.340;3.240;2023-09-12T16:40:06;10.18;;;9.20;;
13797;SDS011;6970;51.340;3.240;2023-09-12T16:42:37;10.30;;;9.40;;
13797;SDS011;6970;51.340;3.240;2023-09-12T16:45:05;12.47;;;11.27;;
13797;SDS011;6970;51.340;3.240;2023-09-12T16:47:36;11.33;;;10.23;;
13797;SDS011;6970;51.340;3.240;2023-09-12T16:50:04;11.33;;;10.13;;
13797;SDS011;6970;51.340;3.240;2023-09-12T16:55:01;11.60;;;10.20;;
13797;SDS011;6970;51.340;3.240;2023-09-12T17:00:00;12.77;;;11.60;;
13797;SDS011;6970;51.340;3.240;2023-09-12T17:02:28;12.00;;;10.80;;
13797;SDS011;6970;51.340;3.240;2023-09-12T17:04:55;11.53;;;10.50;;
13797;SDS011;6970;51.340;3.240;2023-09-12T17:09:53;13.03;;;11.57;;
13797;SDS011;6970;51.340;3.240;2023-09-12T17:12:20;13.50;;;12.20;;
13797;SDS011;6970;51.340;3.240;2023-09-12T17:14:48;14.40;;;12.90;;
13797;SDS011;6970;51.340;3.240;2023-09-12T17:17:22;11.80;;;10.80;;
13797;SDS011;6970;51.340;3.240;2023-09-12T17:22:27;12.63;;;11.53;;
13797;SDS011;6970;51.340;3.240;2023-09-12T17:25:06;14.23;;;12.73;;
13797;SDS011;6970;51.340;3.240;2023-09-12T17:27:36;12.90;;;11.70;;
13797;SDS011;6970;51.340;3.240;2023-09-12T17:30:04;14.87;;;13.47;;
13797;SDS011;6970;51.340;3.240;2023-09-12T17:32:36;14.20;;;12.77;;
13797;SDS011;6970;51.340;3.240;2023-09-12T17:35:04;13.97;;;12.53;;
13797;SDS011;6970;51.340;3.240;2023-09-12T17:37:34;16.00;;;12.73;;
13797;SDS011;6970;51.340;3.240;2023-09-12T17:40:01;13.53;;;12.07;;
13797;SDS011;6970;51.340;3.240;2023-09-12T17:42:29;14.77;;;13.37;;
13797;SDS011;6970;51.340;3.240;2023-09-12T17:44:57;12.50;;;11.23;;
13797;SDS011;6970;51.340;3.240;2023-09-12T17:47:25;14.17;;;12.83;;